sensor_id;sensor_type;location;lat;lon;timestamp;P1;durP1;ratioP1;P2;durP2;ratioP2
63312;SDS011;49442;45.640;13.812;2023-11-19T00:00:42;4.15;;;2.55;;
63312;SDS011;49442;45.640;13.812;2023-11-19T00:03:08;7.97;;;3.10;;
63312;SDS011;49442;45.640;13.812;2023-11-19T00:05:35;7.20;;;2.75;;
63312;SDS011;49442;45.640;13.812;2023-11-19T00:08:01;9.20;;;2.47;;
63312;SDS011;49442;45.640;13.812;2023-11-19T00:10:27;12.48;;;3.03;;
63312;SDS011;49442;45.640;13.812;2023-11-19T00:12:53;5.95;;;2.30;;
63312;SDS011;49442;45.640;13.812;2023-11-19T00:15:18;7.65;;;3.10;;
63312;SDS011;49442;45.640;13.812;2023-11-19T00:17:45;5.45;;;3.22;;
63312;SDS011;49442;45.640;13.812;2023-11-19T00:20:12;5.18;;;2.05;;
63312;SDS011;49442;45.640;13.812;2023-11-19T00:22:42;3.22;;;1.98;;
63312;SDS011;49442;45.640;13.812;2023-11-19T00:25:09;4.25;;;2.40;;
63312;SDS011;49442;45.640;13.812;2023-11-19T00:27:35;7.25;;;2.70;;
63312;SDS011;49442;45.640;13.812;2023-11-19T00:30:03;5.78;;;2.50;;
63312;SDS011;49442;45.640;13.812;2023-11-19T00:32:30;4.97;;;2.67;;
63312;SDS011;49442;45.640;13.812;2023-11-19T00:34:57;6.63;;;2.45;;
63312;SDS011;49442;45.640;13.812;2023-11-19T00:37:22;7.00;;;2.58;;
63312;SDS011;49442;45.640;13.812;2023-11-19T00:39:48;5.32;;;2.67;;
63312;SDS011;49442;45.640;13.812;2023-11-19T00:42:14;5.07;;;2.78;;
63312;SDS011;49442;45.640;13.812;2023-11-19T00:44:39;4.50;;;2.58;;
63312;SDS011;49442;45.640;13.812;2023-11-19T00:47:06;9.50;;;2.90;;
63312;SDS011;49442;45.640;13.812;2023-11-19T00:49:32;7.50;;;3.15;;
63312;SDS011;49442;45.640;13.812;2023-11-19T00:51:58;4.65;;;2.50;;
63312;SDS011;49442;45.640;13.812;2023-11-19T00:54:24;3.75;;;2.35;;
63312;SDS011;49442;45.640;13.812;2023-11-19T00:56:54;9.40;;;2.97;;
63312;SDS011;49442;45.640;13.812;2023-11-19T00:59:20;4.70;;;2.47;;
63312;SDS011;49442;45.640;13.812;2023-11-19T01:01:46;7.03;;;2.78;;
63312;SDS011;49442;45.640;13.812;2023-11-19T01:04:13;7.50;;;2.78;;
63312;SDS011;49442;45.640;13.812;2023-11-19T01:06:40;4.75;;;3.03;;
63312;SDS011;49442;45.640;13.812;2023-11-19T01:09:07;5.07;;;3.05;;
63312;SDS011;49442;45.640;13.812;2023-11-19T01:11:34;6.43;;;2.75;;
63312;SDS011;49442;45.640;13.812;2023-11-19T01:14:00;6.20;;;2.65;;
63312;SDS011;49442;45.640;13.812;2023-11-19T01:16:26;4.05;;;2.65;;
63312;SDS011;49442;45.640;13.812;2023-11-19T01:18:52;4.45;;;2.80;;
63312;SDS011;49442;45.640;13.812;2023-11-19T01:21:18;4.75;;;2.75;;
63312;SDS011;49442;45.640;13.812;2023-11-19T01:23:44;12.80;;;3.08;;
63312;SDS011;49442;45.640;13.812;2023-11-19T01:26:10;8.00;;;3.00;;
63312;SDS011;49442;45.640;13.812;2023-11-19T01:28:37;6.88;;;2.63;;
63312;SDS011;49442;45.640;13.812;2023-11-19T01:31:04;5.60;;;3.55;;
63312;SDS011;49442;45.640;13.812;2023-11-19T01:33:31;6.70;;;2.88;;
63312;SDS011;49442;45.640;13.812;2023-11-19T01:35:57;5.65;;;2.80;;
63312;SDS011;49442;45.640;13.812;2023-11-19T01:38:24;10.32;;;2.95;;
63312;SDS011;49442;45.640;13.812;2023-11-19T01:40:50;8.80;;;3.47;;
63312;SDS011;49442;45.640;13.812;2023-11-19T01:46:01;4.38;;;2.50;;
63312;SDS011;49442;45.640;13.812;2023-11-19T01:48:28;7.25;;;2.95;;
63312;SDS011;49442;45.640;13.812;2023-11-19T01:50:55;4.70;;;2.67;;
63312;SDS011;49442;45.640;13.812;2023-11-19T01:53:22;6.35;;;2.63;;
63312;SDS011;49442;45.640;13.812;2023-11-19T01:55:48;3.67;;;2.70;;
63312;SDS011;49442;45.640;13.812;2023-11-19T01:58:14;8.48;;;2.53;;
63312;SDS011;49442;45.640;13.812;2023-11-19T02:00:41;8.80;;;3.00;;
63312;SDS011;49442;45.640;13.812;2023-11-19T02:03:09;3.65;;;2.17;;
63312;SDS011;49442;45.640;13.812;2023-11-19T02:05:35;4.72;;;2.72;;
63312;SDS011;49442;45.640;13.812;2023-11-19T02:08:01;3.33;;;2.67;;
63312;SDS011;49442;45.640;13.812;2023-11-19T02:10:28;6.82;;;2.47;;
63312;SDS011;49442;45.640;13.812;2023-11-19T02:12:53;24.50;;;3.05;;
63312;SDS011;49442;45.640;13.812;2023-11-19T02:15:20;4.97;;;2.50;;
63312;SDS011;49442;45.640;13.812;2023-11-19T02:17:49;6.38;;;2.83;;
63312;SDS011;49442;45.640;13.812;2023-11-19T02:20:17;3.92;;;2.72;;
63312;SDS011;49442;45.640;13.812;2023-11-19T02:22:45;5.88;;;2.85;;
63312;SDS011;49442;45.640;13.812;2023-11-19T02:25:25;5.97;;;2.50;;
63312;SDS011;49442;45.640;13.812;2023-11-19T02:28:00;5.25;;;2.70;;
63312;SDS011;49442;45.640;13.812;2023-11-19T02:30:27;5.88;;;2.88;;
63312;SDS011;49442;45.640;13.812;2023-11-19T02:32:56;5.32;;;2.83;;
63312;SDS011;49442;45.640;13.812;2023-11-19T02:35:30;6.07;;;3.08;;
63312;SDS011;49442;45.640;13.812;2023-11-19T02:37:57;3.10;;;2.45;;
63312;SDS011;49442;45.640;13.812;2023-11-19T02:40:24;5.03;;;3.17;;
63312;SDS011;49442;45.640;13.812;2023-11-19T02:42:50;6.15;;;2.72;;
63312;SDS011;49442;45.640;13.812;2023-11-19T02:45:16;2.75;;;2.13;;
63312;SDS011;49442;45.640;13.812;2023-11-19T02:47:42;6.20;;;2.40;;
63312;SDS011;49442;45.640;13.812;2023-11-19T02:50:09;4.15;;;2.53;;
63312;SDS011;49442;45.640;13.812;2023-11-19T02:52:41;5.32;;;2.55;;
63312;SDS011;49442;45.640;13.812;2023-11-19T02:55:08;4.13;;;2.80;;
63312;SDS011;49442;45.640;13.812;2023-11-19T02:57:40;6.13;;;2.75;;
63312;SDS011;49442;45.640;13.812;2023-11-19T03:00:17;5.70;;;2.67;;
63312;SDS011;49442;45.640;13.812;2023-11-19T03:02:43;4.90;;;2.90;;
63312;SDS011;49442;45.640;13.812;2023-11-19T03:05:14;3.70;;;2.60;;
63312;SDS011;49442;45.640;13.812;2023-11-19T03:07:41;8.82;;;3.45;;
63312;SDS011;49442;45.640;13.812;2023-11-19T03:10:08;4.88;;;2.75;;
63312;SDS011;49442;45.640;13.812;2023-11-19T03:12:38;4.32;;;2.83;;
63312;SDS011;49442;45.640;13.812;2023-11-19T03:15:07;6.07;;;2.70;;
63312;SDS011;49442;45.640;13.812;2023-11-19T03:17:40;7.68;;;3.30;;
63312;SDS011;49442;45.640;13.812;2023-11-19T03:20:09;3.75;;;2.88;;
63312;SDS011;49442;45.640;13.812;2023-11-19T03:22:39;4.85;;;2.92;;
63312;SDS011;49442;45.640;13.812;2023-11-19T03:25:11;5.13;;;2.75;;
63312;SDS011;49442;45.640;13.812;2023-11-19T03:27:38;7.10;;;2.97;;
63312;SDS011;49442;45.640;13.812;2023-11-19T03:30:10;6.32;;;3.22;;
63312;SDS011;49442;45.640;13.812;2023-11-19T03:32:36;3.63;;;2.67;;
63312;SDS011;49442;45.640;13.812;2023-11-19T03:35:02;6.13;;;2.60;;
63312;SDS011;49442;45.640;13.812;2023-11-19T03:37:29;5.10;;;2.65;;
63312;SDS011;49442;45.640;13.812;2023-11-19T03:39:56;4.18;;;2.72;;
63312;SDS011;49442;45.640;13.812;2023-11-19T03:42:25;3.58;;;2.70;;
63312;SDS011;49442;45.640;13.812;2023-11-19T03:44:52;5.65;;;2.83;;
63312;SDS011;49442;45.640;13.812;2023-11-19T03:47:18;4.18;;;2.60;;
63312;SDS011;49442;45.640;13.812;2023-11-19T03:49:50;13.50;;;2.70;;
63312;SDS011;49442;45.640;13.812;2023-11-19T03:52:16;6.15;;;3.05;;
63312;SDS011;49442;45.640;13.812;2023-11-19T03:54:43;5.25;;;2.85;;
63312;SDS011;49442;45.640;13.812;2023-11-19T03:57:09;7.45;;;2.63;;
63312;SDS011;49442;45.640;13.812;2023-11-19T03:59:35;4.50;;;2.50;;
63312;SDS011;49442;45.640;13.812;2023-11-19T04:02:01;4.55;;;2.70;;
63312;SDS011;49442;45.640;13.812;2023-11-19T04:04:28;4.00;;;2.55;;
63312;SDS011;49442;45.640;13.812;2023-11-19T04:06:56;7.15;;;2.88;;
63312;SDS011;49442;45.640;13.812;2023-11-19T04:09:23;3.97;;;2.47;;
63312;SDS011;49442;45.640;13.812;2023-11-19T04:11:49;2.95;;;2.30;;
63312;SDS011;49442;45.640;13.812;2023-11-19T04:14:14;4.88;;;2.85;;
63312;SDS011;49442;45.640;13.812;2023-11-19T04:16:43;6.72;;;2.83;;
63312;SDS011;49442;45.640;13.812;2023-11-19T04:19:11;4.00;;;2.45;;
63312;SDS011;49442;45.640;13.812;2023-11-19T04:21:39;7.10;;;2.75;;
63312;SDS011;49442;45.640;13.812;2023-11-19T04:24:06;2.92;;;2.33;;
63312;SDS011;49442;45.640;13.812;2023-11-19T04:26:32;3.88;;;2.35;;
63312;SDS011;49442;45.640;13.812;2023-11-19T04:28:59;4.13;;;2.60;;
63312;SDS011;49442;45.640;13.812;2023-11-19T04:31:28;5.28;;;3.10;;
63312;SDS011;49442;45.640;13.812;2023-11-19T04:33:56;5.72;;;2.65;;
63312;SDS011;49442;45.640;13.812;2023-11-19T04:36:22;3.80;;;2.70;;
63312;SDS011;49442;45.640;13.812;2023-11-19T04:38:49;5.38;;;3.13;;
63312;SDS011;49442;45.640;13.812;2023-11-19T04:41:15;5.30;;;3.13;;
63312;SDS011;49442;45.640;13.812;2023-11-19T04:43:41;6.15;;;2.92;;
63312;SDS011;49442;45.640;13.812;2023-11-19T04:46:07;7.25;;;2.90;;
63312;SDS011;49442;45.640;13.812;2023-11-19T04:48:34;6.50;;;2.83;;
63312;SDS011;49442;45.640;13.812;2023-11-19T04:51:00;4.72;;;2.83;;
63312;SDS011;49442;45.640;13.812;2023-11-19T04:53:26;4.28;;;2.92;;
63312;SDS011;49442;45.640;13.812;2023-11-19T04:55:51;5.05;;;3.15;;
63312;SDS011;49442;45.640;13.812;2023-11-19T04:58:17;6.43;;;2.92;;
63312;SDS011;49442;45.640;13.812;2023-11-19T05:00:44;5.95;;;3.47;;
63312;SDS011;49442;45.640;13.812;2023-11-19T05:03:10;4.45;;;2.72;;
63312;SDS011;49442;45.640;13.812;2023-11-19T05:05:36;7.50;;;2.92;;
63312;SDS011;49442;45.640;13.812;2023-11-19T05:08:01;6.93;;;3.28;;
63312;SDS011;49442;45.640;13.812;2023-11-19T05:10:27;6.15;;;3.42;;
63312;SDS011;49442;45.640;13.812;2023-11-19T05:12:53;5.05;;;3.17;;
63312;SDS011;49442;45.640;13.812;2023-11-19T05:15:21;4.93;;;3.08;;
63312;SDS011;49442;45.640;13.812;2023-11-19T05:17:47;5.75;;;3.60;;
63312;SDS011;49442;45.640;13.812;2023-11-19T05:20:13;6.53;;;3.30;;
63312;SDS011;49442;45.640;13.812;2023-11-19T05:22:42;6.03;;;3.30;;
63312;SDS011;49442;45.640;13.812;2023-11-19T05:25:08;6.75;;;3.28;;
63312;SDS011;49442;45.640;13.812;2023-11-19T05:27:36;5.05;;;3.35;;
63312;SDS011;49442;45.640;13.812;2023-11-19T05:30:02;10.00;;;3.85;;
63312;SDS011;49442;45.640;13.812;2023-11-19T05:32:29;5.50;;;3.70;;
63312;SDS011;49442;45.640;13.812;2023-11-19T05:34:55;7.65;;;4.10;;
63312;SDS011;49442;45.640;13.812;2023-11-19T05:37:21;5.03;;;4.00;;
63312;SDS011;49442;45.640;13.812;2023-11-19T05:39:47;7.22;;;4.78;;
63312;SDS011;49442;45.640;13.812;2023-11-19T05:42:12;7.15;;;4.53;;
63312;SDS011;49442;45.640;13.812;2023-11-19T05:44:38;14.93;;;13.20;;
63312;SDS011;49442;45.640;13.812;2023-11-19T05:47:04;6.22;;;4.55;;
63312;SDS011;49442;45.640;13.812;2023-11-19T05:49:29;8.60;;;4.50;;
63312;SDS011;49442;45.640;13.812;2023-11-19T05:51:55;9.85;;;8.80;;
63312;SDS011;49442;45.640;13.812;2023-11-19T05:54:21;9.68;;;5.30;;
63312;SDS011;49442;45.640;13.812;2023-11-19T05:56:47;8.18;;;5.07;;
63312;SDS011;49442;45.640;13.812;2023-11-19T05:59:14;7.60;;;6.15;;
63312;SDS011;49442;45.640;13.812;2023-11-19T06:01:42;11.70;;;5.47;;
63312;SDS011;49442;45.640;13.812;2023-11-19T06:04:09;7.38;;;4.43;;
63312;SDS011;49442;45.640;13.812;2023-11-19T06:06:35;6.47;;;5.30;;
63312;SDS011;49442;45.640;13.812;2023-11-19T06:09:01;10.27;;;4.95;;
63312;SDS011;49442;45.640;13.812;2023-11-19T06:11:31;7.22;;;3.25;;
63312;SDS011;49442;45.640;13.812;2023-11-19T06:13:58;6.13;;;3.55;;
63312;SDS011;49442;45.640;13.812;2023-11-19T06:16:24;4.70;;;3.97;;
63312;SDS011;49442;45.640;13.812;2023-11-19T06:18:49;4.10;;;3.30;;
63312;SDS011;49442;45.640;13.812;2023-11-19T06:21:15;7.28;;;3.50;;
63312;SDS011;49442;45.640;13.812;2023-11-19T06:23:41;5.63;;;3.85;;
63312;SDS011;49442;45.640;13.812;2023-11-19T06:26:07;6.75;;;3.92;;
63312;SDS011;49442;45.640;13.812;2023-11-19T06:28:33;5.00;;;3.13;;
63312;SDS011;49442;45.640;13.812;2023-11-19T06:30:59;4.50;;;3.30;;
63312;SDS011;49442;45.640;13.812;2023-11-19T06:33:25;4.95;;;3.13;;
63312;SDS011;49442;45.640;13.812;2023-11-19T06:35:52;5.75;;;4.43;;
63312;SDS011;49442;45.640;13.812;2023-11-19T06:38:17;7.00;;;4.05;;
63312;SDS011;49442;45.640;13.812;2023-11-19T06:40:43;5.85;;;3.10;;
63312;SDS011;49442;45.640;13.812;2023-11-19T06:43:09;7.60;;;3.97;;
63312;SDS011;49442;45.640;13.812;2023-11-19T06:45:35;7.03;;;3.75;;
63312;SDS011;49442;45.640;13.812;2023-11-19T06:48:02;8.43;;;3.53;;
63312;SDS011;49442;45.640;13.812;2023-11-19T06:50:31;5.43;;;2.97;;
63312;SDS011;49442;45.640;13.812;2023-11-19T06:52:57;14.90;;;3.67;;
63312;SDS011;49442;45.640;13.812;2023-11-19T06:55:23;5.45;;;3.33;;
63312;SDS011;49442;45.640;13.812;2023-11-19T06:57:48;5.00;;;3.38;;
63312;SDS011;49442;45.640;13.812;2023-11-19T07:00:14;6.40;;;3.50;;
63312;SDS011;49442;45.640;13.812;2023-11-19T07:02:40;10.60;;;3.38;;
63312;SDS011;49442;45.640;13.812;2023-11-19T07:05:06;6.93;;;3.70;;
63312;SDS011;49442;45.640;13.812;2023-11-19T07:07:33;8.77;;;3.40;;
63312;SDS011;49442;45.640;13.812;2023-11-19T07:09:59;4.07;;;3.60;;
63312;SDS011;49442;45.640;13.812;2023-11-19T07:12:24;5.03;;;2.90;;
63312;SDS011;49442;45.640;13.812;2023-11-19T07:14:51;5.93;;;3.70;;
63312;SDS011;49442;45.640;13.812;2023-11-19T07:17:18;5.72;;;3.22;;
63312;SDS011;49442;45.640;13.812;2023-11-19T07:19:45;10.13;;;3.40;;
63312;SDS011;49442;45.640;13.812;2023-11-19T07:22:20;6.18;;;3.58;;
63312;SDS011;49442;45.640;13.812;2023-11-19T07:24:45;6.40;;;3.42;;
63312;SDS011;49442;45.640;13.812;2023-11-19T07:27:11;4.80;;;3.50;;
63312;SDS011;49442;45.640;13.812;2023-11-19T07:29:37;5.88;;;2.95;;
63312;SDS011;49442;45.640;13.812;2023-11-19T07:32:03;9.13;;;4.72;;
63312;SDS011;49442;45.640;13.812;2023-11-19T07:34:31;10.32;;;3.75;;
63312;SDS011;49442;45.640;13.812;2023-11-19T07:36:57;5.90;;;3.90;;
63312;SDS011;49442;45.640;13.812;2023-11-19T07:39:24;7.82;;;3.20;;
63312;SDS011;49442;45.640;13.812;2023-11-19T07:41:50;6.10;;;3.78;;
63312;SDS011;49442;45.640;13.812;2023-11-19T07:44:16;6.45;;;3.33;;
63312;SDS011;49442;45.640;13.812;2023-11-19T07:46:41;5.78;;;3.08;;
63312;SDS011;49442;45.640;13.812;2023-11-19T07:49:07;8.25;;;3.65;;
63312;SDS011;49442;45.640;13.812;2023-11-19T07:51:33;7.50;;;3.22;;
63312;SDS011;49442;45.640;13.812;2023-11-19T07:53:58;4.32;;;2.90;;
63312;SDS011;49442;45.640;13.812;2023-11-19T07:56:24;4.85;;;2.90;;
63312;SDS011;49442;45.640;13.812;2023-11-19T07:58:50;6.82;;;3.35;;
63312;SDS011;49442;45.640;13.812;2023-11-19T08:01:16;6.45;;;2.80;;
63312;SDS011;49442;45.640;13.812;2023-11-19T08:03:42;3.58;;;2.95;;
63312;SDS011;49442;45.640;13.812;2023-11-19T08:06:07;5.22;;;3.03;;
63312;SDS011;49442;45.640;13.812;2023-11-19T08:08:33;5.65;;;3.08;;
63312;SDS011;49442;45.640;13.812;2023-11-19T08:11:00;5.18;;;3.20;;
63312;SDS011;49442;45.640;13.812;2023-11-19T08:13:25;4.80;;;3.03;;
63312;SDS011;49442;45.640;13.812;2023-11-19T08:15:51;4.55;;;3.13;;
63312;SDS011;49442;45.640;13.812;2023-11-19T08:18:17;6.82;;;3.33;;
63312;SDS011;49442;45.640;13.812;2023-11-19T08:20:43;4.57;;;2.78;;
63312;SDS011;49442;45.640;13.812;2023-11-19T08:23:10;5.28;;;2.75;;
63312;SDS011;49442;45.640;13.812;2023-11-19T08:25:35;4.75;;;2.80;;
63312;SDS011;49442;45.640;13.812;2023-11-19T08:28:01;3.60;;;2.60;;
63312;SDS011;49442;45.640;13.812;2023-11-19T08:30:28;4.63;;;3.17;;
63312;SDS011;49442;45.640;13.812;2023-11-19T08:32:55;6.10;;;3.05;;
63312;SDS011;49442;45.640;13.812;2023-11-19T08:35:21;4.05;;;2.83;;
63312;SDS011;49442;45.640;13.812;2023-11-19T08:37:47;5.25;;;2.92;;
63312;SDS011;49442;45.640;13.812;2023-11-19T08:40:12;4.50;;;2.95;;
63312;SDS011;49442;45.640;13.812;2023-11-19T08:42:39;4.10;;;2.90;;
63312;SDS011;49442;45.640;13.812;2023-11-19T08:45:06;3.63;;;2.80;;
63312;SDS011;49442;45.640;13.812;2023-11-19T08:47:33;9.07;;;3.10;;
63312;SDS011;49442;45.640;13.812;2023-11-19T08:49:59;4.47;;;3.05;;
63312;SDS011;49442;45.640;13.812;2023-11-19T08:52:25;8.85;;;3.42;;
63312;SDS011;49442;45.640;13.812;2023-11-19T08:54:50;6.88;;;3.65;;
63312;SDS011;49442;45.640;13.812;2023-11-19T08:57:16;4.72;;;2.63;;
63312;SDS011;49442;45.640;13.812;2023-11-19T08:59:42;5.05;;;2.97;;
63312;SDS011;49442;45.640;13.812;2023-11-19T09:02:08;6.20;;;3.10;;
63312;SDS011;49442;45.640;13.812;2023-11-19T09:04:34;4.53;;;3.25;;
63312;SDS011;49442;45.640;13.812;2023-11-19T09:07:01;5.22;;;3.03;;
63312;SDS011;49442;45.640;13.812;2023-11-19T09:09:26;9.20;;;3.25;;
63312;SDS011;49442;45.640;13.812;2023-11-19T09:11:52;7.35;;;2.88;;
63312;SDS011;49442;45.640;13.812;2023-11-19T09:14:19;4.68;;;3.15;;
63312;SDS011;49442;45.640;13.812;2023-11-19T09:16:49;4.82;;;2.92;;
63312;SDS011;49442;45.640;13.812;2023-11-19T09:19:15;6.95;;;3.17;;
63312;SDS011;49442;45.640;13.812;2023-11-19T09:21:42;5.40;;;3.08;;
63312;SDS011;49442;45.640;13.812;2023-11-19T09:24:08;5.38;;;3.65;;
63312;SDS011;49442;45.640;13.812;2023-11-19T09:26:34;7.57;;;3.50;;
63312;SDS011;49442;45.640;13.812;2023-11-19T09:29:01;11.65;;;3.45;;
63312;SDS011;49442;45.640;13.812;2023-11-19T09:31:27;6.53;;;3.63;;
63312;SDS011;49442;45.640;13.812;2023-11-19T09:33:52;8.10;;;3.85;;
63312;SDS011;49442;45.640;13.812;2023-11-19T09:36:18;8.07;;;3.60;;
63312;SDS011;49442;45.640;13.812;2023-11-19T09:38:44;5.63;;;3.28;;
63312;SDS011;49442;45.640;13.812;2023-11-19T09:41:10;6.07;;;3.80;;
63312;SDS011;49442;45.640;13.812;2023-11-19T09:43:40;7.78;;;3.35;;
63312;SDS011;49442;45.640;13.812;2023-11-19T09:46:06;10.70;;;3.53;;
63312;SDS011;49442;45.640;13.812;2023-11-19T09:48:37;8.50;;;3.70;;
63312;SDS011;49442;45.640;13.812;2023-11-19T09:51:06;5.43;;;3.70;;
63312;SDS011;49442;45.640;13.812;2023-11-19T09:53:33;8.43;;;3.85;;
63312;SDS011;49442;45.640;13.812;2023-11-19T09:56:02;8.80;;;4.18;;
63312;SDS011;49442;45.640;13.812;2023-11-19T09:58:29;7.28;;;4.40;;
63312;SDS011;49442;45.640;13.812;2023-11-19T10:00:56;7.68;;;5.18;;
63312;SDS011;49442;45.640;13.812;2023-11-19T10:03:24;5.45;;;3.97;;
63312;SDS011;49442;45.640;13.812;2023-11-19T10:05:52;8.93;;;4.43;;
63312;SDS011;49442;45.640;13.812;2023-11-19T10:08:20;6.63;;;4.50;;
63312;SDS011;49442;45.640;13.812;2023-11-19T10:10:45;10.27;;;4.85;;
63312;SDS011;49442;45.640;13.812;2023-11-19T10:13:12;12.82;;;4.75;;
63312;SDS011;49442;45.640;13.812;2023-11-19T10:15:39;6.70;;;4.50;;
63312;SDS011;49442;45.640;13.812;2023-11-19T10:18:05;9.45;;;5.22;;
63312;SDS011;49442;45.640;13.812;2023-11-19T10:20:35;8.80;;;5.10;;
63312;SDS011;49442;45.640;13.812;2023-11-19T10:23:10;9.10;;;4.40;;
63312;SDS011;49442;45.640;13.812;2023-11-19T10:25:36;7.32;;;5.60;;
63312;SDS011;49442;45.640;13.812;2023-11-19T10:28:02;9.63;;;5.43;;
63312;SDS011;49442;45.640;13.812;2023-11-19T10:30:28;10.65;;;5.15;;
63312;SDS011;49442;45.640;13.812;2023-11-19T10:33:08;7.90;;;4.97;;
63312;SDS011;49442;45.640;13.812;2023-11-19T10:35:56;9.57;;;5.20;;
63312;SDS011;49442;45.640;13.812;2023-11-19T10:38:22;7.47;;;4.60;;
63312;SDS011;49442;45.640;13.812;2023-11-19T10:40:48;11.07;;;4.45;;
63312;SDS011;49442;45.640;13.812;2023-11-19T10:43:15;4.72;;;3.60;;
63312;SDS011;49442;45.640;13.812;2023-11-19T10:45:42;5.05;;;3.42;;
63312;SDS011;49442;45.640;13.812;2023-11-19T10:48:08;8.25;;;3.80;;
63312;SDS011;49442;45.640;13.812;2023-11-19T10:53:05;10.18;;;4.40;;
63312;SDS011;49442;45.640;13.812;2023-11-19T10:55:36;5.35;;;3.72;;
63312;SDS011;49442;45.640;13.812;2023-11-19T11:00:44;8.00;;;4.47;;
63312;SDS011;49442;45.640;13.812;2023-11-19T11:05:50;6.60;;;4.40;;
63312;SDS011;49442;45.640;13.812;2023-11-19T11:08:17;10.57;;;4.20;;
63312;SDS011;49442;45.640;13.812;2023-11-19T11:10:44;7.93;;;4.28;;
63312;SDS011;49442;45.640;13.812;2023-11-19T11:13:22;7.97;;;4.60;;
63312;SDS011;49442;45.640;13.812;2023-11-19T11:15:57;6.53;;;4.25;;
63312;SDS011;49442;45.640;13.812;2023-11-19T11:18:23;5.40;;;4.07;;
63312;SDS011;49442;45.640;13.812;2023-11-19T11:29:13;8.93;;;4.47;;
63312;SDS011;49442;45.640;13.812;2023-11-19T11:31:54;5.65;;;3.60;;
63312;SDS011;49442;45.640;13.812;2023-11-19T11:39:57;6.68;;;4.03;;
63312;SDS011;49442;45.640;13.812;2023-11-19T11:45:04;8.23;;;4.10;;
63312;SDS011;49442;45.640;13.812;2023-11-19T11:50:10;8.77;;;4.53;;
63312;SDS011;49442;45.640;13.812;2023-11-19T11:55:24;9.60;;;4.97;;
63312;SDS011;49442;45.640;13.812;2023-11-19T11:58:01;7.68;;;4.85;;
63312;SDS011;49442;45.640;13.812;2023-11-19T12:00:29;6.10;;;4.80;;
63312;SDS011;49442;45.640;13.812;2023-11-19T12:02:56;7.30;;;5.10;;
63312;SDS011;49442;45.640;13.812;2023-11-19T12:05:24;8.05;;;4.50;;
63312;SDS011;49442;45.640;13.812;2023-11-19T12:08:03;10.52;;;5.15;;
63312;SDS011;49442;45.640;13.812;2023-11-19T12:10:32;9.98;;;4.90;;
63312;SDS011;49442;45.640;13.812;2023-11-19T12:13:03;7.70;;;4.67;;
63312;SDS011;49442;45.640;13.812;2023-11-19T12:15:33;12.33;;;5.37;;
63312;SDS011;49442;45.640;13.812;2023-11-19T12:18:18;10.55;;;4.90;;
63312;SDS011;49442;45.640;13.812;2023-11-19T12:20:44;9.45;;;4.95;;
63312;SDS011;49442;45.640;13.812;2023-11-19T12:23:10;8.23;;;5.45;;
63312;SDS011;49442;45.640;13.812;2023-11-19T12:25:36;6.57;;;4.63;;
63312;SDS011;49442;45.640;13.812;2023-11-19T12:28:02;6.65;;;5.30;;
63312;SDS011;49442;45.640;13.812;2023-11-19T12:30:29;6.55;;;4.47;;
63312;SDS011;49442;45.640;13.812;2023-11-19T12:32:55;11.73;;;5.35;;
63312;SDS011;49442;45.640;13.812;2023-11-19T12:35:21;6.65;;;4.53;;
63312;SDS011;49442;45.640;13.812;2023-11-19T12:37:48;9.52;;;6.30;;
63312;SDS011;49442;45.640;13.812;2023-11-19T12:42:40;10.38;;;5.95;;
63312;SDS011;49442;45.640;13.812;2023-11-19T12:45:06;9.35;;;5.45;;
63312;SDS011;49442;45.640;13.812;2023-11-19T12:47:39;9.38;;;5.65;;
63312;SDS011;49442;45.640;13.812;2023-11-19T12:50:06;8.43;;;5.15;;
63312;SDS011;49442;45.640;13.812;2023-11-19T12:52:34;9.77;;;5.78;;
63312;SDS011;49442;45.640;13.812;2023-11-19T12:55:00;9.35;;;5.68;;
63312;SDS011;49442;45.640;13.812;2023-11-19T12:57:36;9.75;;;5.20;;
63312;SDS011;49442;45.640;13.812;2023-11-19T13:00:03;8.60;;;5.53;;
63312;SDS011;49442;45.640;13.812;2023-11-19T13:02:46;9.23;;;5.95;;
63312;SDS011;49442;45.640;13.812;2023-11-19T13:05:34;13.63;;;5.88;;
63312;SDS011;49442;45.640;13.812;2023-11-19T13:08:05;8.30;;;5.82;;
63312;SDS011;49442;45.640;13.812;2023-11-19T13:10:54;21.45;;;7.18;;
63312;SDS011;49442;45.640;13.812;2023-11-19T13:13:19;15.90;;;6.15;;
63312;SDS011;49442;45.640;13.812;2023-11-19T13:15:45;8.68;;;6.68;;
63312;SDS011;49442;45.640;13.812;2023-11-19T13:18:11;8.85;;;5.75;;
63312;SDS011;49442;45.640;13.812;2023-11-19T13:20:38;9.18;;;6.97;;
63312;SDS011;49442;45.640;13.812;2023-11-19T13:23:04;8.52;;;6.05;;
63312;SDS011;49442;45.640;13.812;2023-11-19T13:25:32;10.25;;;6.68;;
63312;SDS011;49442;45.640;13.812;2023-11-19T13:27:58;12.43;;;7.22;;
63312;SDS011;49442;45.640;13.812;2023-11-19T13:30:24;10.77;;;7.25;;
63312;SDS011;49442;45.640;13.812;2023-11-19T13:32:51;12.23;;;7.38;;
63312;SDS011;49442;45.640;13.812;2023-11-19T13:35:17;12.05;;;6.88;;
63312;SDS011;49442;45.640;13.812;2023-11-19T13:37:46;10.70;;;6.22;;
63312;SDS011;49442;45.640;13.812;2023-11-19T13:40:12;14.10;;;8.57;;
63312;SDS011;49442;45.640;13.812;2023-11-19T13:42:39;8.07;;;6.88;;
63312;SDS011;49442;45.640;13.812;2023-11-19T13:45:15;11.60;;;7.80;;
63312;SDS011;49442;45.640;13.812;2023-11-19T13:47:44;12.82;;;7.70;;
63312;SDS011;49442;45.640;13.812;2023-11-19T13:50:11;9.23;;;6.57;;
63312;SDS011;49442;45.640;13.812;2023-11-19T13:52:38;12.15;;;7.25;;
63312;SDS011;49442;45.640;13.812;2023-11-19T13:55:06;13.93;;;7.82;;
63312;SDS011;49442;45.640;13.812;2023-11-19T13:57:33;11.43;;;7.75;;
63312;SDS011;49442;45.640;13.812;2023-11-19T14:00:00;11.00;;;8.25;;
63312;SDS011;49442;45.640;13.812;2023-11-19T14:02:31;11.68;;;8.13;;
63312;SDS011;49442;45.640;13.812;2023-11-19T14:04:57;12.07;;;8.27;;
63312;SDS011;49442;45.640;13.812;2023-11-19T14:07:23;10.32;;;8.20;;
63312;SDS011;49442;45.640;13.812;2023-11-19T14:09:48;13.70;;;8.52;;
63312;SDS011;49442;45.640;13.812;2023-11-19T14:12:15;13.80;;;7.78;;
63312;SDS011;49442;45.640;13.812;2023-11-19T14:14:41;10.43;;;7.80;;
63312;SDS011;49442;45.640;13.812;2023-11-19T14:17:07;11.00;;;8.07;;
63312;SDS011;49442;45.640;13.812;2023-11-19T14:19:33;9.02;;;6.65;;
63312;SDS011;49442;45.640;13.812;2023-11-19T14:21:59;10.65;;;7.57;;
63312;SDS011;49442;45.640;13.812;2023-11-19T14:24:25;11.23;;;6.30;;
63312;SDS011;49442;45.640;13.812;2023-11-19T14:26:51;14.10;;;7.18;;
63312;SDS011;49442;45.640;13.812;2023-11-19T14:29:17;14.02;;;8.43;;
63312;SDS011;49442;45.640;13.812;2023-11-19T14:31:43;8.88;;;6.68;;
63312;SDS011;49442;45.640;13.812;2023-11-19T14:34:08;8.05;;;6.25;;
63312;SDS011;49442;45.640;13.812;2023-11-19T14:36:34;11.27;;;7.13;;
63312;SDS011;49442;45.640;13.812;2023-11-19T14:39:00;11.25;;;6.95;;
63312;SDS011;49442;45.640;13.812;2023-11-19T14:41:26;14.43;;;7.43;;
63312;SDS011;49442;45.640;13.812;2023-11-19T14:43:51;11.73;;;6.65;;
63312;SDS011;49442;45.640;13.812;2023-11-19T14:46:17;13.45;;;7.00;;
63312;SDS011;49442;45.640;13.812;2023-11-19T14:48:43;10.73;;;6.90;;
63312;SDS011;49442;45.640;13.812;2023-11-19T14:51:09;12.07;;;7.13;;
63312;SDS011;49442;45.640;13.812;2023-11-19T14:53:34;10.35;;;8.10;;
63312;SDS011;49442;45.640;13.812;2023-11-19T14:56:00;15.05;;;7.35;;
63312;SDS011;49442;45.640;13.812;2023-11-19T14:58:26;11.43;;;7.18;;
63312;SDS011;49442;45.640;13.812;2023-11-19T15:00:52;10.40;;;6.80;;
63312;SDS011;49442;45.640;13.812;2023-11-19T15:03:18;9.23;;;6.75;;
63312;SDS011;49442;45.640;13.812;2023-11-19T15:05:47;9.07;;;7.13;;